Time;durP1;ratioP1;P1;durP2;ratioP2;P2;SDS_P1;SDS_P2;PMS_P1;PMS_P2;Temp;Humidity;BMP_temperature;BMP_pressure;BME280_temperature;BME280_humidity;BME280_pressure;Samples;Min_cycle;Max_cycle;Signal;HPM_P1;HPM_P2
2023/01/10 00:00:12;;;;;;;18.20;7.67;;;6.70;99.90;;;;;;2615690;54;20949;-71
2023/01/10 00:06:00;;;;;;;15.77;7.90;;;6.60;99.90;;;;;;2615636;54;20387;-72
2023/01/10 00:17:54;;;;;;;12.03;6.93;;;6.50;99.90;;;;;;2615879;54;20415;-71
2023/01/10 00:27:19;;;;;;;14.80;6.90;;;6.60;99.90;;;;;;2615092;54;20399;-71
2023/01/10 00:33:07;;;;;;;12.60;7.30;;;6.50;99.90;;;;;;2615483;54;20404;-72
2023/01/10 00:38:55;;;;;;;18.07;7.97;;;6.40;99.90;;;;;;2615834;54;20435;-70
2023/01/10 00:44:45;;;;;;;18.40;8.53;;;6.40;99.90;;;;;;2615809;39;20660;-69
2023/01/10 00:50:33;;;;;;;14.23;8.17;;;6.30;99.90;;;;;;2615521;54;20398;-71
2023/01/10 00:56:21;;;;;;;15.90;8.97;;;6.30;99.90;;;;;;2614946;54;20235;-70
2023/01/10 01:02:08;;;;;;;18.73;9.00;;;6.20;99.90;;;;;;2615396;54;20130;-70
2023/01/10 01:07:56;;;;;;;8.87;6.13;;;6.00;99.90;;;;;;2615488;54;20147;-71
2023/01/10 01:13:44;;;;;;;12.70;6.50;;;5.90;99.90;;;;;;2614646;54;20150;-73
2023/01/10 01:19:31;;;;;;;15.00;7.30;;;5.90;99.90;;;;;;2615573;46;20210;-72
2023/01/10 01:22:41;;;;;;;14.47;7.40;;;5.90;99.90;;;;;;2615233;54;20498;-70
2023/01/10 01:25:07;;;;;;;13.43;7.93;;;5.90;99.90;;;;;;2615438;54;20226;-72
2023/01/10 01:30:55;;;;;;;14.97;8.10;;;5.90;99.90;;;;;;2614907;54;20423;-72
2023/01/10 01:36:42;;;;;;;10.13;5.43;;;5.90;99.90;;;;;;2615734;31;20629;-71
2023/01/10 01:42:32;;;;;;;11.17;6.07;;;6.00;99.90;;;;;;2615190;54;20146;-71
2023/01/10 01:48:32;;;;;;;10.80;5.63;;;6.10;99.90;;;;;;2614487;54;20347;-72
2023/01/10 01:54:20;;;;;;;9.23;5.50;;;6.20;99.90;;;;;;2615495;54;20358;-72
2023/01/10 02:00:10;;;;;;;16.70;5.70;;;6.30;99.90;;;;;;2615854;39;20544;-71
2023/01/10 02:05:58;;;;;;;14.83;5.83;;;6.30;99.90;;;;;;2613870;54;20378;-72
2023/01/10 02:11:46;;;;;;;11.70;5.70;;;6.30;99.90;;;;;;2615623;39;21052;-72
2023/01/10 02:17:34;;;;;;;10.83;5.00;;;6.40;99.90;;;;;;2616221;39;20902;-72
2023/01/10 02:27:13;;;;;;;17.07;4.70;;;6.30;99.90;;;;;;2615612;54;20382;-71
2023/01/10 02:39:50;;;;;;;13.27;5.07;;;6.40;99.90;;;;;;2615036;54;20463;-71
2023/01/10 02:45:45;;;;;;;10.53;4.57;;;6.10;99.90;;;;;;2615342;54;20399;-72
2023/01/10 02:51:32;;;;;;;12.60;4.33;;;5.90;99.90;;;;;;2615579;54;21166;-71
2023/01/10 03:04:05;;;;;;;6.67;3.93;;;5.90;99.90;;;;;;2615536;54;20388;-72
2023/01/10 03:09:59;;;;;;;10.90;4.57;;;6.00;99.90;;;;;;2615831;54;20606;-70
2023/01/10 03:13:02;;;;;;;20.67;4.57;;;6.00;99.90;;;;;;2615613;54;20407;-69
2023/01/10 03:15:33;;;;;;;18.57;5.67;;;6.20;99.90;;;;;;2615031;54;20481;-71
2023/01/10 03:21:23;;;;;;;8.50;3.97;;;6.20;99.90;;;;;;2615616;54;20394;-69
2023/01/10 03:49:30;;;;;;;14.33;5.17;;;5.90;99.90;;;;;;2615514;54;20972;-71
2023/01/10 03:55:21;;;;;;;8.40;4.40;;;5.80;99.90;;;;;;2614687;46;20391;-71
2023/01/10 04:01:09;;;;;;;13.43;5.50;;;5.70;99.90;;;;;;2615644;54;20387;-71
2023/01/10 04:06:57;;;;;;;5.77;3.37;;;5.60;99.90;;;;;;2615225;54;20119;-70
2023/01/10 04:12:44;;;;;;;17.57;3.97;;;5.40;99.90;;;;;;2614393;54;20162;-71
2023/01/10 04:18:32;;;;;;;9.80;4.27;;;5.30;99.90;;;;;;2615596;39;20551;-72
2023/01/10 04:24:20;;;;;;;8.80;4.83;;;5.50;99.90;;;;;;2615402;54;20685;-72
2023/01/10 04:33:31;;;;;;;12.50;5.03;;;5.40;99.90;;;;;;2615126;54;20392;-71
2023/01/10 04:39:18;;;;;;;20.53;4.67;;;5.10;99.90;;;;;;2615410;54;20398;-72
2023/01/10 04:45:09;;;;;;;13.00;4.33;;;5.00;99.90;;;;;;2615101;54;20640;-72
2023/01/10 04:50:56;;;;;;;6.40;3.97;;;5.10;99.90;;;;;;2615772;46;20436;-72
2023/01/10 04:56:44;;;;;;;18.33;4.50;;;4.90;99.90;;;;;;2615115;54;20158;-71
2023/01/10 05:02:32;;;;;;;8.83;3.37;;;5.00;99.90;;;;;;2615344;54;20245;-71
2023/01/10 05:08:19;;;;;;;17.97;5.10;;;5.00;99.90;;;;;;2615050;39;20534;-72
2023/01/10 05:14:07;;;;;;;13.63;4.90;;;5.00;99.90;;;;;;2615719;46;20142;-71
2023/01/10 05:19:54;;;;;;;9.17;4.60;;;5.20;99.90;;;;;;2615181;54;20130;-71
2023/01/10 05:25:42;;;;;;;10.17;4.30;;;5.20;99.90;;;;;;2615184;54;20129;-71
2023/01/10 05:31:42;;;;;;;9.63;4.13;;;5.10;99.90;;;;;;2613817;47;20154;-71
2023/01/10 05:37:30;;;;;;;12.13;4.23;;;5.10;99.90;;;;;;2613888;54;20123;-70
2023/01/10 05:43:17;;;;;;;11.13;5.10;;;5.20;99.90;;;;;;2613736;54;20307;-72
2023/01/10 05:49:04;;;;;;;13.80;4.43;;;4.90;99.90;;;;;;2614292;39;20236;-70
2023/01/10 05:54:51;;;;;;;10.97;4.20;;;4.90;99.90;;;;;;2613738;54;20158;-70
2023/01/10 06:00:39;;;;;;;19.87;5.80;;;4.80;99.90;;;;;;2613369;54;20760;-71
2023/01/10 06:06:26;;;;;;;10.60;4.27;;;4.80;99.90;;;;;;2613438;54;21440;-71
2023/01/10 06:12:14;;;;;;;10.80;4.77;;;4.80;99.90;;;;;;2615084;54;20157;-71
2023/01/10 06:18:01;;;;;;;12.90;4.60;;;4.60;99.90;;;;;;2615260;54;20130;-71
2023/01/10 06:23:49;;;;;;;16.63;4.87;;;4.50;99.90;;;;;;2613918;54;20127;-71
2023/01/10 06:33:30;;;;;;;18.03;5.90;;;4.60;99.90;;;;;;2614993;54;20491;-69
2023/01/10 06:39:17;;;;;;;12.07;5.47;;;4.90;99.90;;;;;;2614481;54;20543;-72
2023/01/10 06:45:05;;;;;;;14.83;3.80;;;4.90;99.90;;;;;;2614567;54;20122;-71
2023/01/10 06:50:53;;;;;;;21.27;6.40;;;4.80;99.90;;;;;;2614323;54;20415;-71
2023/01/10 06:56:45;;;;;;;22.27;6.73;;;5.10;99.90;;;;;;2613465;54;20162;-72
2023/01/10 07:02:33;;;;;;;16.57;5.57;;;5.10;99.90;;;;;;2613853;54;20374;-72
2023/01/10 07:08:21;;;;;;;20.20;9.10;;;5.10;99.90;;;;;;2615981;39;20541;-71
2023/01/10 07:14:09;;;;;;;22.43;7.07;;;5.10;99.90;;;;;;2613543;54;20130;-71
2023/01/10 07:19:56;;;;;;;17.73;6.17;;;5.20;99.90;;;;;;2615249;46;20150;-71
2023/01/10 07:25:44;;;;;;;13.53;4.90;;;5.30;99.90;;;;;;2613733;54;20179;-71
2023/01/10 07:31:42;;;;;;;14.60;5.10;;;5.40;99.90;;;;;;2611950;54;20142;-71
2023/01/10 07:37:29;;;;;;;18.23;7.20;;;5.40;99.90;;;;;;2613583;54;20123;-71
2023/01/10 07:39:55;;;;;;;11.73;5.83;;;5.50;99.90;;;;;;2613553;54;20428;-70
2023/01/10 07:42:21;;;;;;;20.07;7.40;;;5.50;99.90;;;;;;2613645;54;20155;-72
2023/01/10 07:48:08;;;;;;;12.43;5.00;;;5.50;99.90;;;;;;2613626;54;20195;-71
2023/01/10 07:53:56;;;;;;;19.50;9.13;;;5.60;99.90;;;;;;2613623;54;20491;-71
2023/01/10 07:59:42;;;;;;;13.80;5.10;;;5.60;99.90;;;;;;2611102;54;20175;-71
2023/01/10 08:05:30;;;;;;;17.60;4.67;;;5.70;99.90;;;;;;2609792;54;20130;-73
2023/01/10 08:11:18;;;;;;;16.07;4.80;;;5.70;99.90;;;;;;2614941;54;20158;-72
2023/01/10 08:17:05;;;;;;;16.13;5.47;;;5.90;99.90;;;;;;2614873;39;21627;-71
2023/01/10 08:22:57;;;;;;;22.80;5.90;;;5.90;99.90;;;;;;2615237;54;20129;-70
2023/01/10 08:28:45;;;;;;;18.97;6.90;;;5.90;99.90;;;;;;2613645;54;20956;-74
2023/01/10 08:34:33;;;;;;;13.50;7.10;;;5.90;99.90;;;;;;2614461;46;20177;-72
2023/01/10 08:40:23;;;;;;;11.07;4.60;;;6.00;99.90;;;;;;2615693;39;20712;-70
2023/01/10 08:46:11;;;;;;;8.87;4.57;;;6.20;99.90;;;;;;2615492;39;20780;-71
2023/01/10 08:52:01;;;;;;;13.10;5.60;;;6.20;99.90;;;;;;2614459;54;20139;-72
2023/01/10 08:57:48;;;;;;;15.73;6.87;;;6.00;99.90;;;;;;2615404;54;20391;-72
2023/01/10 09:03:36;;;;;;;19.47;6.07;;;5.90;99.90;;;;;;2614799;54;20189;-72
2023/01/10 09:06:40;;;;;;;11.33;5.87;;;5.80;99.90;;;;;;2614839;54;20403;-72
2023/01/10 09:09:05;;;;;;;10.27;4.57;;;5.90;99.90;;;;;;2615164;54;20169;-71
2023/01/10 09:14:53;;;;;;;27.03;5.77;;;5.90;99.90;;;;;;2615174;54;20127;-71
2023/01/10 09:20:42;;;;;;;15.23;4.70;;;6.00;99.90;;;;;;2614577;54;20162;-72
2023/01/10 09:26:30;;;;;;;14.73;5.20;;;6.10;99.90;;;;;;2615491;54;20386;-72
2023/01/10 09:28:57;;;;;;;17.17;6.30;;;6.30;99.90;;;;;;2614412;54;20410;-69
2023/01/10 09:31:23;;;;;;;17.70;7.47;;;7.10;99.90;;;;;;2615580;54;20684;-71
2023/01/10 09:37:11;;;;;;;22.37;6.77;;;7.50;99.90;;;;;;2616247;39;20516;-71
2023/01/10 09:49:40;;;;;;;23.93;7.07;;;7.10;99.90;;;;;;2615383;54;20419;-71
2023/01/10 09:55:34;;;;;;;12.37;5.73;;;7.20;99.90;;;;;;2615118;54;20562;-72
2023/01/10 10:01:27;;;;;;;14.53;6.87;;;9.10;99.90;;;;;;2615582;54;20542;-72
2023/01/10 10:07:16;;;;;;;9.70;5.30;;;8.40;99.90;;;;;;2614272;54;20420;-72
2023/01/10 10:13:20;;;;;;;14.23;6.30;;;10.00;99.90;;;;;;2611724;54;20415;-71
2023/01/10 10:19:07;;;;;;;20.57;6.60;;;10.40;99.90;;;;;;2611563;54;20443;-71
2023/01/10 10:31:32;;;;;;;12.63;5.90;;;9.60;99.90;;;;;;2612405;54;20454;-70
2023/01/10 10:37:31;;;;;;;18.20;7.10;;;10.00;99.90;;;;;;2614659;54;20411;-71
2023/01/10 10:43:23;;;;;;;14.37;6.43;;;9.70;99.90;;;;;;2615245;54;20391;-70
2023/01/10 10:49:21;;;;;;;15.83;6.13;;;9.60;99.90;;;;;;2615973;39;20566;-71
2023/01/10 10:55:15;;;;;;;18.10;6.07;;;8.60;99.90;;;;;;2615849;54;20378;-72
2023/01/10 10:58:29;;;;;;;13.80;5.67;;;8.40;99.90;;;;;;2615671;54;20380;-71
2023/01/10 11:00:56;;;;;;;16.87;5.40;;;8.50;99.90;;;;;;2615181;54;20408;-70
2023/01/10 11:06:48;;;;;;;15.43;6.80;;;8.40;99.90;;;;;;2615511;54;20399;-70
2023/01/10 11:12:40;;;;;;;27.97;6.90;;;8.90;99.90;;;;;;2615418;54;20426;-71
2023/01/10 11:18:29;;;;;;;13.77;5.73;;;8.60;99.90;;;;;;2615413;54;20387;-69
2023/01/10 11:24:20;;;;;;;25.90;7.73;;;8.70;99.90;;;;;;2612940;54;20519;-70
2023/01/10 11:26:47;;;;;;;18.63;7.60;;;8.60;99.90;;;;;;2611731;54;20539;-71
2023/01/10 11:33:30;;;;;;;17.67;7.40;;;8.50;99.90;;;;;;2612797;54;20410;-71
2023/01/10 11:39:18;;;;;;;7.63;5.43;;;8.10;99.90;;;;;;2613003;54;20422;-70
2023/01/10 11:45:18;;;;;;;18.03;7.17;;;8.30;99.90;;;;;;2613407;54;20131;-72
2023/01/10 11:57:41;;;;;;;12.53;5.77;;;8.40;99.90;;;;;;2614229;54;20384;-73
2023/01/10 12:03:31;;;;;;;19.33;6.80;;;8.20;99.90;;;;;;2611985;54;20408;-71
2023/01/10 12:09:42;;;;;;;19.07;6.33;;;8.20;99.90;;;;;;2613037;54;20960;-73
2023/01/10 12:15:30;;;;;;;18.60;7.80;;;8.00;99.90;;;;;;2612462;54;20386;-71
2023/01/10 12:21:23;;;;;;;26.03;7.57;;;7.90;99.90;;;;;;2612382;54;20374;-71
2023/01/10 12:27:14;;;;;;;21.70;6.87;;;8.00;99.90;;;;;;2613986;54;20439;-71
2023/01/10 12:49:30;;;;;;;17.23;6.43;;;8.40;99.90;;;;;;2613454;54;20383;-72
2023/01/10 12:55:20;;;;;;;10.30;5.70;;;8.40;99.90;;;;;;2613517;54;20439;-69
2023/01/10 13:01:14;;;;;;;16.43;6.00;;;8.50;99.90;;;;;;2615155;39;21633;-70
2023/01/10 13:04:04;;;;;;;10.83;6.50;;;8.30;99.90;;;;;;2614396;54;20949;-72
2023/01/10 13:07:08;;;;;;;22.80;6.67;;;8.40;99.90;;;;;;2613697;54;20408;-72
2023/01/10 13:19:29;;;;;;;11.00;6.03;;;8.50;99.90;;;;;;2612382;46;20448;-71
2023/01/10 13:25:24;;;;;;;13.40;5.67;;;8.50;99.90;;;;;;2613342;54;20154;-71
2023/01/10 13:31:45;;;;;;;11.57;5.97;;;8.50;99.90;;;;;;2613776;54;20466;-70
2023/01/10 13:37:37;;;;;;;15.10;6.47;;;8.60;99.90;;;;;;2612146;54;20415;-70
2023/01/10 13:43:35;;;;;;;5.67;5.17;;;8.50;99.90;;;;;;2614327;54;20374;-71
2023/01/10 13:55:52;;;;;;;13.10;8.33;;;8.50;99.90;;;;;;2613638;54;20439;-71
2023/01/10 14:04:30;;;;;;;11.20;6.43;;;8.40;99.90;;;;;;2613043;54;20431;-71
2023/01/10 14:06:59;;;;;;;20.00;6.47;;;8.40;99.90;;;;;;2613739;54;20426;-70
2023/01/10 14:19:29;;;;;;;7.50;5.33;;;8.40;99.90;;;;;;2613759;54;20517;-71
2023/01/10 14:25:20;;;;;;;8.60;6.20;;;8.20;99.90;;;;;;2614061;54;20502;-70
2023/01/10 14:50:01;;;;;;;10.73;6.87;;;8.00;99.90;;;;;;2615018;54;20378;-71
2023/01/10 14:55:49;;;;;;;10.47;5.80;;;8.00;99.90;;;;;;2615442;39;20783;-72
2023/01/10 15:01:36;;;;;;;12.60;6.97;;;8.00;99.90;;;;;;2615373;54;20130;-70
2023/01/10 15:07:26;;;;;;;8.60;5.80;;;8.00;99.90;;;;;;2615048;54;20153;-71
2023/01/10 15:13:17;;;;;;;8.60;6.43;;;7.90;99.90;;;;;;2614321;54;20992;-70
2023/01/10 15:19:09;;;;;;;6.70;5.47;;;7.90;99.90;;;;;;2613095;54;20497;-71
2023/01/10 15:25:01;;;;;;;15.20;6.77;;;7.80;99.90;;;;;;2612886;54;20439;-71
2023/01/10 15:30:49;;;;;;;9.00;6.03;;;7.90;99.90;;;;;;2613875;54;21030;-70
2023/01/10 15:40:04;;;;;;;10.10;6.67;;;7.80;99.90;;;;;;2615048;54;20402;-71
2023/01/10 15:45:54;;;;;;;7.17;5.53;;;7.80;99.90;;;;;;2614370;54;20402;-70
2023/01/10 15:48:39;;;;;;;12.30;6.17;;;7.80;99.90;;;;;;2612290;54;20566;-70
2023/01/10 15:57:35;;;;;;;10.87;5.90;;;7.70;99.90;;;;;;2613129;54;20402;-70
2023/01/10 16:03:35;;;;;;;21.73;5.77;;;7.70;99.90;;;;;;2615270;39;20512;-70
2023/01/10 16:09:23;;;;;;;11.20;6.50;;;7.60;99.90;;;;;;2613685;54;20378;-70
2023/01/10 16:15:21;;;;;;;13.03;5.77;;;7.60;99.90;;;;;;2612432;54;20171;-71
2023/01/10 16:21:12;;;;;;;6.20;5.60;;;7.50;99.90;;;;;;2614626;54;20394;-70
2023/01/10 16:27:04;;;;;;;8.23;5.90;;;7.40;99.90;;;;;;2614905;54;20383;-71
2023/01/10 16:32:53;;;;;;;14.27;5.87;;;7.30;99.90;;;;;;2614903;39;20759;-70
2023/01/10 16:52:35;;;;;;;7.23;3.97;;;6.80;99.90;;;;;;2613696;54;20407;-70
2023/01/10 16:58:23;;;;;;;15.53;4.87;;;6.80;99.90;;;;;;2613723;54;20236;-71
2023/01/10 17:04:14;;;;;;;16.63;5.03;;;6.60;99.90;;;;;;2613680;54;20652;-69
2023/01/10 17:10:03;;;;;;;7.97;4.17;;;6.50;99.90;;;;;;2613685;54;20423;-71
2023/01/10 17:15:50;;;;;;;8.03;3.40;;;6.40;99.90;;;;;;2612814;54;20371;-69
2023/01/10 17:21:38;;;;;;;10.30;3.53;;;6.30;99.90;;;;;;2614855;54;20155;-71
2023/01/10 17:27:25;;;;;;;12.53;3.70;;;6.20;99.90;;;;;;2615043;54;20141;-72
2023/01/10 17:33:13;;;;;;;24.67;3.73;;;6.20;99.90;;;;;;2615054;54;20150;-72
2023/01/10 17:42:23;;;;;;;10.27;3.43;;;6.30;99.90;;;;;;2614891;54;20582;-70
2023/01/10 17:48:13;;;;;;;14.23;4.20;;;6.30;99.90;;;;;;2615309;54;20133;-70
2023/01/10 17:54:01;;;;;;;7.60;2.30;;;6.30;99.90;;;;;;2614932;54;20395;-69
2023/01/10 17:59:49;;;;;;;5.00;3.20;;;6.40;99.90;;;;;;2615110;54;20137;-70
2023/01/10 18:05:38;;;;;;;12.50;4.50;;;6.40;99.90;;;;;;2615271;39;20518;-68
2023/01/10 18:11:27;;;;;;;11.93;3.20;;;6.30;99.90;;;;;;2615252;54;20419;-70
2023/01/10 18:17:18;;;;;;;7.30;2.60;;;6.40;99.90;;;;;;2615530;39;20881;-71
2023/01/10 18:29:12;;;;;;;5.90;2.83;;;6.30;99.90;;;;;;2614967;54;20897;-70
2023/01/10 18:34:59;;;;;;;8.03;2.63;;;6.20;99.90;;;;;;2615494;54;20142;-71
2023/01/10 18:37:45;;;;;;;7.90;4.13;;;6.20;99.90;;;;;;2615483;54;20427;-71
2023/01/10 18:40:11;;;;;;;7.60;3.27;;;6.30;99.90;;;;;;2614724;47;20652;-71
2023/01/10 18:46:04;;;;;;;4.37;2.40;;;6.30;99.90;;;;;;2615364;54;20422;-70
2023/01/10 18:51:52;;;;;;;3.67;2.10;;;6.30;99.90;;;;;;2615637;54;20394;-71
2023/01/10 18:57:40;;;;;;;4.90;2.03;;;6.30;99.90;;;;;;2616340;54;20251;-70
2023/01/10 19:03:27;;;;;;;8.50;2.50;;;6.30;99.90;;;;;;2616204;54;20126;-71
2023/01/10 19:05:53;;;;;;;5.87;4.50;;;6.30;99.90;;;;;;2615532;54;20964;-71
2023/01/10 19:08:19;;;;;;;6.47;2.30;;;6.30;99.90;;;;;;2616135;54;20147;-70
2023/01/10 19:14:06;;;;;;;5.70;2.03;;;6.20;99.90;;;;;;2615835;54;20126;-73
2023/01/10 19:19:54;;;;;;;4.57;2.30;;;6.40;99.90;;;;;;2616488;54;20226;-72
2023/01/10 19:25:41;;;;;;;4.70;2.03;;;6.40;99.90;;;;;;2615870;54;20617;-70
2023/01/10 19:31:29;;;;;;;5.17;2.27;;;6.50;99.90;;;;;;2615394;54;20140;-71
2023/01/10 19:37:17;;;;;;;8.40;2.10;;;6.60;99.90;;;;;;2616155;31;20644;-70
2023/01/10 19:43:05;;;;;;;7.53;2.30;;;6.60;99.90;;;;;;2615936;54;20118;-72
2023/01/10 19:48:57;;;;;;;4.50;2.13;;;6.70;99.90;;;;;;2616060;54;20365;-72
2023/01/10 19:54:47;;;;;;;7.10;2.00;;;6.80;99.90;;;;;;2615857;54;20426;-70
2023/01/10 20:00:34;;;;;;;4.40;2.53;;;6.70;99.90;;;;;;2616189;54;20366;-69
2023/01/10 20:06:25;;;;;;;4.80;1.90;;;6.70;99.90;;;;;;2615900;46;20173;-71
2023/01/10 20:12:13;;;;;;;4.10;2.33;;;6.80;99.90;;;;;;2616151;39;20816;-71
2023/01/10 20:18:01;;;;;;;3.90;1.87;;;6.70;99.90;;;;;;2615647;54;20836;-72
2023/01/10 20:23:49;;;;;;;4.50;2.30;;;6.60;99.90;;;;;;2615943;54;20150;-71
2023/01/10 20:29:38;;;;;;;4.20;2.30;;;6.60;99.90;;;;;;2615748;54;20684;-71
2023/01/10 20:35:25;;;;;;;2.83;1.37;;;6.40;99.90;;;;;;2616238;54;20423;-69
2023/01/10 20:44:35;;;;;;;5.10;2.80;;;6.30;99.90;;;;;;2616118;54;20468;-72
2023/01/10 20:50:22;;;;;;;21.67;3.60;;;6.30;99.90;;;;;;2613758;54;20130;-74
2023/01/10 20:56:16;;;;;;;3.03;1.67;;;6.30;99.90;;;;;;2612266;54;20163;-70
2023/01/10 21:02:04;;;;;;;3.73;1.50;;;6.40;99.90;;;;;;2613324;39;20980;-70
2023/01/10 21:07:52;;;;;;;2.80;1.90;;;6.70;99.90;;;;;;2613133;54;20126;-71
2023/01/10 21:13:40;;;;;;;3.03;1.90;;;6.80;99.90;;;;;;2613053;54;20874;-70
2023/01/10 21:19:30;;;;;;;3.40;2.27;;;6.80;99.90;;;;;;2613967;54;20170;-71
2023/01/10 21:25:18;;;;;;;3.80;1.97;;;7.00;99.90;;;;;;2614796;54;20935;-70
2023/01/10 21:31:06;;;;;;;2.67;1.57;;;7.10;99.90;;;;;;2614718;54;20177;-72
2023/01/10 21:36:55;;;;;;;3.03;2.30;;;7.20;99.90;;;;;;2611966;54;20157;-72
2023/01/10 21:40:00;;;;;;;6.57;2.40;;;7.20;99.90;;;;;;2611108;52;20458;-71
2023/01/10 21:48:33;;;;;;;3.27;2.03;;;7.40;99.90;;;;;;2612080;54;20375;-71
2023/01/10 21:54:20;;;;;;;3.47;2.17;;;7.40;99.90;;;;;;2610512;54;20499;-73
2023/01/10 22:00:09;;;;;;;3.33;2.07;;;7.50;99.90;;;;;;2614214;39;20551;-72
2023/01/10 22:05:56;;;;;;;2.40;1.67;;;7.50;99.90;;;;;;2614805;54;20438;-72
2023/01/10 22:11:44;;;;;;;2.77;1.60;;;7.50;99.90;;;;;;2614702;54;20162;-71
2023/01/10 22:17:32;;;;;;;2.70;1.40;;;7.40;99.90;;;;;;2614822;54;20251;-71
2023/01/10 22:23:19;;;;;;;2.33;1.63;;;7.40;99.90;;;;;;2614191;54;20143;-73
2023/01/10 22:29:07;;;;;;;3.07;1.70;;;7.30;99.90;;;;;;2615307;54;20158;-70
2023/01/10 22:34:55;;;;;;;3.00;1.57;;;7.40;99.90;;;;;;2612658;54;20130;-70
2023/01/10 22:44:36;;;;;;;2.20;1.20;;;7.40;99.90;;;;;;2615275;39;20776;-72
2023/01/10 22:50:24;;;;;;;4.20;1.50;;;7.40;99.90;;;;;;2614097;54;20423;-70
2023/01/10 22:56:12;;;;;;;3.70;1.47;;;7.20;99.90;;;;;;2614049;54;20454;-71
2023/01/10 23:01:59;;;;;;;2.83;1.43;;;7.30;99.90;;;;;;2614780;54;20265;-71
2023/01/10 23:07:49;;;;;;;2.20;1.47;;;7.50;99.90;;;;;;2613704;54;20130;-71
2023/01/10 23:13:37;;;;;;;1.90;0.97;;;7.60;99.90;;;;;;2614730;54;20414;-70
2023/01/10 23:19:25;;;;;;;3.30;1.40;;;7.50;99.90;;;;;;2615325;54;20153;-71
2023/01/10 23:25:13;;;;;;;2.60;1.20;;;7.60;99.90;;;;;;2613506;54;20127;-73
2023/01/10 23:31:01;;;;;;;2.47;1.63;;;7.60;99.90;;;;;;2611955;54;20262;-71
2023/01/10 23:36:49;;;;;;;2.13;1.10;;;7.70;99.90;;;;;;2613717;54;20394;-70
2023/01/10 23:40:03;;;;;;;2.73;1.23;;;7.80;99.90;;;;;;2614093;39;20886;-71
2023/01/10 23:42:29;;;;;;;2.10;1.23;;;7.90;99.90;;;;;;2614353;39;20596;-71
2023/01/10 23:48:17;;;;;;;4.97;1.20;;;8.10;99.90;;;;;;2613035;39;20594;-71
2023/01/10 23:54:05;;;;;;;2.53;1.33;;;8.20;99.90;;;;;;2612703;54;20427;-70
2023/01/10 23:59:52;;;;;;;2.53;1.23;;;8.30;99.90;;;;;;2613496;54;20266;-72
